sensor_id;sensor_type;location;lat;lon;timestamp;P1;durP1;ratioP1;P2;durP2;ratioP2
24259;SDS011;12384;48.112;18.418;2022-11-15T00:00:25;46.57;;;40.83;;
24259;SDS011;12384;48.112;18.418;2022-11-15T00:03:13;36.77;;;32.90;;
24259;SDS011;12384;48.112;18.418;2022-11-15T00:06:01;36.00;;;32.33;;
24259;SDS011;12384;48.112;18.418;2022-11-15T00:08:50;37.60;;;33.60;;
24259;SDS011;12384;48.112;18.418;2022-11-15T00:11:38;37.80;;;33.80;;
24259;SDS011;12384;48.112;18.418;2022-11-15T00:14:25;39.20;;;35.00;;
24259;SDS011;12384;48.112;18.418;2022-11-15T00:17:12;36.47;;;32.77;;
24259;SDS011;12384;48.112;18.418;2022-11-15T00:19:59;35.03;;;31.50;;
24259;SDS011;12384;48.112;18.418;2022-11-15T00:22:46;38.73;;;34.60;;
24259;SDS011;12384;48.112;18.418;2022-11-15T00:25:32;39.43;;;35.20;;
24259;SDS011;12384;48.112;18.418;2022-11-15T00:28:21;36.70;;;32.87;;
24259;SDS011;12384;48.112;18.418;2022-11-15T00:31:09;37.43;;;33.33;;
24259;SDS011;12384;48.112;18.418;2022-11-15T00:33:58;37.27;;;33.17;;
24259;SDS011;12384;48.112;18.418;2022-11-15T00:36:45;35.63;;;31.93;;
24259;SDS011;12384;48.112;18.418;2022-11-15T00:39:32;35.97;;;32.37;;
24259;SDS011;12384;48.112;18.418;2022-11-15T00:42:19;34.20;;;30.60;;
24259;SDS011;12384;48.112;18.418;2022-11-15T00:45:07;34.83;;;31.17;;
24259;SDS011;12384;48.112;18.418;2022-11-15T00:47:54;37.63;;;33.73;;
24259;SDS011;12384;48.112;18.418;2022-11-15T00:50:41;35.47;;;31.77;;
24259;SDS011;12384;48.112;18.418;2022-11-15T00:53:28;34.87;;;31.27;;
24259;SDS011;12384;48.112;18.418;2022-11-15T00:56:15;37.97;;;33.97;;
24259;SDS011;12384;48.112;18.418;2022-11-15T00:59:02;37.70;;;32.97;;
24259;SDS011;12384;48.112;18.418;2022-11-15T01:01:50;36.97;;;33.07;;
24259;SDS011;12384;48.112;18.418;2022-11-15T01:04:37;34.90;;;31.37;;
24259;SDS011;12384;48.112;18.418;2022-11-15T01:07:24;34.60;;;31.20;;
24259;SDS011;12384;48.112;18.418;2022-11-15T01:10:11;33.23;;;29.90;;
24259;SDS011;12384;48.112;18.418;2022-11-15T01:12:58;34.37;;;30.97;;
24259;SDS011;12384;48.112;18.418;2022-11-15T01:15:45;33.10;;;29.83;;
24259;SDS011;12384;48.112;18.418;2022-11-15T01:18:33;31.27;;;28.03;;
24259;SDS011;12384;48.112;18.418;2022-11-15T01:21:20;32.67;;;29.27;;
24259;SDS011;12384;48.112;18.418;2022-11-15T01:24:07;32.03;;;28.93;;
24259;SDS011;12384;48.112;18.418;2022-11-15T01:26:54;34.00;;;30.37;;
24259;SDS011;12384;48.112;18.418;2022-11-15T01:29:40;36.57;;;31.83;;
24259;SDS011;12384;48.112;18.418;2022-11-15T01:32:27;35.50;;;31.90;;
24259;SDS011;12384;48.112;18.418;2022-11-15T01:35:15;35.03;;;31.33;;
24259;SDS011;12384;48.112;18.418;2022-11-15T01:38:02;34.57;;;30.97;;
24259;SDS011;12384;48.112;18.418;2022-11-15T01:40:48;38.17;;;33.83;;
24259;SDS011;12384;48.112;18.418;2022-11-15T01:43:36;35.37;;;31.87;;
24259;SDS011;12384;48.112;18.418;2022-11-15T01:46:24;36.77;;;32.77;;
24259;SDS011;12384;48.112;18.418;2022-11-15T01:49:16;36.33;;;32.53;;
24259;SDS011;12384;48.112;18.418;2022-11-15T01:52:07;34.10;;;30.43;;
24259;SDS011;12384;48.112;18.418;2022-11-15T01:54:59;35.50;;;31.83;;
24259;SDS011;12384;48.112;18.418;2022-11-15T01:57:50;35.47;;;31.80;;
24259;SDS011;12384;48.112;18.418;2022-11-15T02:00:39;38.50;;;32.73;;
24259;SDS011;12384;48.112;18.418;2022-11-15T02:03:33;38.33;;;34.23;;
24259;SDS011;12384;48.112;18.418;2022-11-15T02:06:25;34.73;;;31.23;;
24259;SDS011;12384;48.112;18.418;2022-11-15T02:09:14;35.60;;;31.90;;
24259;SDS011;12384;48.112;18.418;2022-11-15T02:12:01;32.83;;;29.50;;
24259;SDS011;12384;48.112;18.418;2022-11-15T02:14:49;40.67;;;35.63;;
24259;SDS011;12384;48.112;18.418;2022-11-15T02:17:48;34.83;;;31.10;;
24259;SDS011;12384;48.112;18.418;2022-11-15T02:20:47;35.20;;;31.53;;
24259;SDS011;12384;48.112;18.418;2022-11-15T02:24:00;33.37;;;30.07;;
24259;SDS011;12384;48.112;18.418;2022-11-15T02:27:31;34.47;;;31.07;;
24259;SDS011;12384;48.112;18.418;2022-11-15T02:30:31;35.20;;;31.53;;
24259;SDS011;12384;48.112;18.418;2022-11-15T02:33:28;34.93;;;31.40;;
24259;SDS011;12384;48.112;18.418;2022-11-15T02:36:25;34.20;;;30.80;;
24259;SDS011;12384;48.112;18.418;2022-11-15T02:39:23;34.73;;;31.17;;
24259;SDS011;12384;48.112;18.418;2022-11-15T02:42:16;33.97;;;30.47;;
24259;SDS011;12384;48.112;18.418;2022-11-15T02:45:26;31.17;;;28.03;;
24259;SDS011;12384;48.112;18.418;2022-11-15T02:48:17;32.80;;;29.53;;
24259;SDS011;12384;48.112;18.418;2022-11-15T02:51:05;31.60;;;28.60;;
24259;SDS011;12384;48.112;18.418;2022-11-15T02:53:52;34.90;;;31.20;;
24259;SDS011;12384;48.112;18.418;2022-11-15T02:56:39;30.73;;;27.77;;
24259;SDS011;12384;48.112;18.418;2022-11-15T02:59:33;33.40;;;29.90;;
24259;SDS011;12384;48.112;18.418;2022-11-15T03:02:39;32.47;;;29.27;;
24259;SDS011;12384;48.112;18.418;2022-11-15T03:05:37;29.47;;;26.67;;
24259;SDS011;12384;48.112;18.418;2022-11-15T03:08:31;31.30;;;28.17;;
24259;SDS011;12384;48.112;18.418;2022-11-15T03:11:23;32.03;;;28.87;;
24259;SDS011;12384;48.112;18.418;2022-11-15T03:14:12;31.57;;;28.37;;
24259;SDS011;12384;48.112;18.418;2022-11-15T03:17:09;30.47;;;27.47;;
24259;SDS011;12384;48.112;18.418;2022-11-15T03:20:01;30.03;;;27.10;;
24259;SDS011;12384;48.112;18.418;2022-11-15T03:22:52;29.63;;;26.77;;
24259;SDS011;12384;48.112;18.418;2022-11-15T03:25:42;28.93;;;26.13;;
24259;SDS011;12384;48.112;18.418;2022-11-15T03:28:32;27.47;;;24.77;;
24259;SDS011;12384;48.112;18.418;2022-11-15T03:31:22;28.53;;;25.93;;
24259;SDS011;12384;48.112;18.418;2022-11-15T03:34:36;27.90;;;25.27;;
24259;SDS011;12384;48.112;18.418;2022-11-15T03:37:27;29.27;;;26.57;;
24259;SDS011;12384;48.112;18.418;2022-11-15T03:40:21;31.83;;;28.63;;
24259;SDS011;12384;48.112;18.418;2022-11-15T03:43:14;28.80;;;26.07;;
24259;SDS011;12384;48.112;18.418;2022-11-15T03:46:06;30.00;;;27.07;;
24259;SDS011;12384;48.112;18.418;2022-11-15T03:49:00;30.73;;;27.73;;
24259;SDS011;12384;48.112;18.418;2022-11-15T03:51:49;30.13;;;27.13;;
24259;SDS011;12384;48.112;18.418;2022-11-15T03:54:36;29.70;;;26.90;;
24259;SDS011;12384;48.112;18.418;2022-11-15T03:57:34;30.83;;;27.63;;
24259;SDS011;12384;48.112;18.418;2022-11-15T04:00:21;29.97;;;27.03;;
24259;SDS011;12384;48.112;18.418;2022-11-15T04:03:07;30.07;;;27.07;;
24259;SDS011;12384;48.112;18.418;2022-11-15T04:05:54;28.23;;;25.43;;
24259;SDS011;12384;48.112;18.418;2022-11-15T04:08:41;28.87;;;25.97;;
24259;SDS011;12384;48.112;18.418;2022-11-15T04:11:28;26.57;;;24.03;;
24259;SDS011;12384;48.112;18.418;2022-11-15T04:14:16;26.30;;;23.90;;
24259;SDS011;12384;48.112;18.418;2022-11-15T04:17:03;26.37;;;23.77;;
24259;SDS011;12384;48.112;18.418;2022-11-15T04:19:49;28.70;;;25.87;;
24259;SDS011;12384;48.112;18.418;2022-11-15T04:22:53;29.67;;;26.73;;
24259;SDS011;12384;48.112;18.418;2022-11-15T04:25:59;27.40;;;24.90;;
24259;SDS011;12384;48.112;18.418;2022-11-15T04:28:47;27.43;;;24.83;;
24259;SDS011;12384;48.112;18.418;2022-11-15T04:31:53;28.47;;;25.77;;
24259;SDS011;12384;48.112;18.418;2022-11-15T04:34:39;27.37;;;24.87;;
24259;SDS011;12384;48.112;18.418;2022-11-15T04:37:26;29.03;;;26.33;;
24259;SDS011;12384;48.112;18.418;2022-11-15T04:40:13;29.87;;;27.03;;
24259;SDS011;12384;48.112;18.418;2022-11-15T04:43:00;29.70;;;26.70;;
24259;SDS011;12384;48.112;18.418;2022-11-15T04:45:48;28.30;;;25.73;;
24259;SDS011;12384;48.112;18.418;2022-11-15T04:48:36;26.73;;;24.40;;
24259;SDS011;12384;48.112;18.418;2022-11-15T04:51:23;26.63;;;24.23;;
24259;SDS011;12384;48.112;18.418;2022-11-15T04:54:09;27.53;;;24.70;;
24259;SDS011;12384;48.112;18.418;2022-11-15T04:56:56;28.00;;;25.20;;
24259;SDS011;12384;48.112;18.418;2022-11-15T04:59:43;26.97;;;24.40;;
24259;SDS011;12384;48.112;18.418;2022-11-15T05:02:29;27.33;;;24.70;;
24259;SDS011;12384;48.112;18.418;2022-11-15T05:05:24;26.23;;;23.87;;
24259;SDS011;12384;48.112;18.418;2022-11-15T05:08:11;28.47;;;25.73;;
24259;SDS011;12384;48.112;18.418;2022-11-15T05:10:58;26.40;;;24.00;;
24259;SDS011;12384;48.112;18.418;2022-11-15T05:13:45;28.87;;;26.13;;
24259;SDS011;12384;48.112;18.418;2022-11-15T05:16:32;26.97;;;24.57;;
24259;SDS011;12384;48.112;18.418;2022-11-15T05:19:18;27.53;;;24.80;;
24259;SDS011;12384;48.112;18.418;2022-11-15T05:22:06;30.27;;;27.23;;
24259;SDS011;12384;48.112;18.418;2022-11-15T05:24:53;25.90;;;23.70;;
24259;SDS011;12384;48.112;18.418;2022-11-15T05:27:40;27.70;;;25.10;;
24259;SDS011;12384;48.112;18.418;2022-11-15T05:30:26;27.97;;;25.30;;
24259;SDS011;12384;48.112;18.418;2022-11-15T05:33:13;28.00;;;25.60;;
24259;SDS011;12384;48.112;18.418;2022-11-15T05:36:00;28.17;;;25.50;;
24259;SDS011;12384;48.112;18.418;2022-11-15T05:38:52;27.97;;;25.37;;
24259;SDS011;12384;48.112;18.418;2022-11-15T05:41:40;27.80;;;25.33;;
24259;SDS011;12384;48.112;18.418;2022-11-15T05:44:30;29.03;;;26.23;;
24259;SDS011;12384;48.112;18.418;2022-11-15T05:47:19;28.90;;;26.20;;
24259;SDS011;12384;48.112;18.418;2022-11-15T05:50:10;27.83;;;25.23;;
24259;SDS011;12384;48.112;18.418;2022-11-15T05:52:58;28.77;;;25.97;;
24259;SDS011;12384;48.112;18.418;2022-11-15T05:55:50;27.50;;;25.00;;
24259;SDS011;12384;48.112;18.418;2022-11-15T05:58:37;27.53;;;24.83;;
24259;SDS011;12384;48.112;18.418;2022-11-15T06:01:24;29.33;;;26.50;;
24259;SDS011;12384;48.112;18.418;2022-11-15T06:04:12;29.60;;;26.90;;
24259;SDS011;12384;48.112;18.418;2022-11-15T06:06:59;31.03;;;27.93;;
24259;SDS011;12384;48.112;18.418;2022-11-15T06:09:46;27.17;;;24.67;;
24259;SDS011;12384;48.112;18.418;2022-11-15T06:12:34;29.90;;;27.10;;
24259;SDS011;12384;48.112;18.418;2022-11-15T06:15:21;29.40;;;26.50;;
24259;SDS011;12384;48.112;18.418;2022-11-15T06:18:07;27.80;;;25.30;;
24259;SDS011;12384;48.112;18.418;2022-11-15T06:20:58;27.57;;;25.00;;
24259;SDS011;12384;48.112;18.418;2022-11-15T06:23:45;28.00;;;25.60;;
24259;SDS011;12384;48.112;18.418;2022-11-15T06:26:31;29.80;;;26.97;;
24259;SDS011;12384;48.112;18.418;2022-11-15T06:29:20;28.67;;;25.97;;
24259;SDS011;12384;48.112;18.418;2022-11-15T06:32:07;28.27;;;25.60;;
24259;SDS011;12384;48.112;18.418;2022-11-15T06:34:54;28.90;;;26.20;;
24259;SDS011;12384;48.112;18.418;2022-11-15T06:37:41;28.23;;;25.67;;
24259;SDS011;12384;48.112;18.418;2022-11-15T06:40:28;29.00;;;25.90;;
24259;SDS011;12384;48.112;18.418;2022-11-15T06:43:15;27.37;;;24.87;;
24259;SDS011;12384;48.112;18.418;2022-11-15T06:46:03;27.23;;;24.73;;
24259;SDS011;12384;48.112;18.418;2022-11-15T06:48:51;26.47;;;24.17;;
24259;SDS011;12384;48.112;18.418;2022-11-15T06:51:39;27.23;;;24.50;;
24259;SDS011;12384;48.112;18.418;2022-11-15T06:54:25;26.50;;;24.10;;
24259;SDS011;12384;48.112;18.418;2022-11-15T06:57:12;28.80;;;25.90;;
24259;SDS011;12384;48.112;18.418;2022-11-15T06:59:59;28.43;;;25.80;;
24259;SDS011;12384;48.112;18.418;2022-11-15T07:02:47;27.40;;;25.00;;
24259;SDS011;12384;48.112;18.418;2022-11-15T07:05:34;27.73;;;25.07;;
24259;SDS011;12384;48.112;18.418;2022-11-15T07:08:21;27.67;;;25.07;;
24259;SDS011;12384;48.112;18.418;2022-11-15T07:11:09;27.47;;;24.87;;
24259;SDS011;12384;48.112;18.418;2022-11-15T07:13:55;27.27;;;24.70;;
24259;SDS011;12384;48.112;18.418;2022-11-15T07:16:42;27.93;;;25.33;;
24259;SDS011;12384;48.112;18.418;2022-11-15T07:19:30;28.13;;;25.43;;
24259;SDS011;12384;48.112;18.418;2022-11-15T07:22:16;27.40;;;24.87;;
24259;SDS011;12384;48.112;18.418;2022-11-15T07:25:03;27.67;;;24.93;;
24259;SDS011;12384;48.112;18.418;2022-11-15T07:27:53;26.67;;;24.17;;
24259;SDS011;12384;48.112;18.418;2022-11-15T07:30:41;26.13;;;23.83;;
24259;SDS011;12384;48.112;18.418;2022-11-15T07:33:29;25.63;;;23.27;;
24259;SDS011;12384;48.112;18.418;2022-11-15T07:36:18;25.93;;;23.53;;
24259;SDS011;12384;48.112;18.418;2022-11-15T07:39:04;24.73;;;22.63;;
24259;SDS011;12384;48.112;18.418;2022-11-15T07:41:51;27.77;;;25.23;;
24259;SDS011;12384;48.112;18.418;2022-11-15T07:44:58;27.63;;;25.27;;
24259;SDS011;12384;48.112;18.418;2022-11-15T07:47:45;26.23;;;23.90;;
24259;SDS011;12384;48.112;18.418;2022-11-15T07:50:32;28.63;;;25.93;;
24259;SDS011;12384;48.112;18.418;2022-11-15T07:53:20;26.63;;;24.30;;
24259;SDS011;12384;48.112;18.418;2022-11-15T07:56:06;28.23;;;25.63;;
24259;SDS011;12384;48.112;18.418;2022-11-15T07:58:54;28.57;;;25.77;;
24259;SDS011;12384;48.112;18.418;2022-11-15T08:01:41;29.53;;;26.73;;
24259;SDS011;12384;48.112;18.418;2022-11-15T08:04:28;27.77;;;25.17;;
24259;SDS011;12384;48.112;18.418;2022-11-15T08:07:15;30.67;;;27.40;;
24259;SDS011;12384;48.112;18.418;2022-11-15T08:10:03;31.33;;;26.93;;
24259;SDS011;12384;48.112;18.418;2022-11-15T08:12:58;30.10;;;26.90;;
24259;SDS011;12384;48.112;18.418;2022-11-15T08:15:45;30.00;;;26.80;;
24259;SDS011;12384;48.112;18.418;2022-11-15T08:18:40;29.03;;;25.97;;
24259;SDS011;12384;48.112;18.418;2022-11-15T08:21:27;29.00;;;26.20;;
24259;SDS011;12384;48.112;18.418;2022-11-15T08:24:14;29.03;;;26.20;;
24259;SDS011;12384;48.112;18.418;2022-11-15T08:27:02;28.07;;;25.37;;
24259;SDS011;12384;48.112;18.418;2022-11-15T08:29:49;29.23;;;26.53;;
24259;SDS011;12384;48.112;18.418;2022-11-15T08:32:43;27.60;;;25.10;;
24259;SDS011;12384;48.112;18.418;2022-11-15T08:35:30;28.00;;;25.20;;
24259;SDS011;12384;48.112;18.418;2022-11-15T08:38:16;28.20;;;25.50;;
24259;SDS011;12384;48.112;18.418;2022-11-15T08:41:04;28.30;;;25.67;;
24259;SDS011;12384;48.112;18.418;2022-11-15T08:43:52;28.43;;;25.73;;
24259;SDS011;12384;48.112;18.418;2022-11-15T08:46:39;27.40;;;25.00;;
24259;SDS011;12384;48.112;18.418;2022-11-15T08:49:26;27.90;;;25.30;;
24259;SDS011;12384;48.112;18.418;2022-11-15T08:52:13;28.80;;;25.93;;
24259;SDS011;12384;48.112;18.418;2022-11-15T08:55:00;28.73;;;26.13;;
24259;SDS011;12384;48.112;18.418;2022-11-15T08:57:47;27.40;;;24.87;;
24259;SDS011;12384;48.112;18.418;2022-11-15T09:00:35;27.63;;;25.03;;
24259;SDS011;12384;48.112;18.418;2022-11-15T09:03:22;26.57;;;24.17;;
24259;SDS011;12384;48.112;18.418;2022-11-15T09:06:09;28.50;;;25.80;;
24259;SDS011;12384;48.112;18.418;2022-11-15T09:08:56;27.17;;;24.77;;
24259;SDS011;12384;48.112;18.418;2022-11-15T09:11:43;28.20;;;25.60;;
24259;SDS011;12384;48.112;18.418;2022-11-15T09:14:31;27.67;;;25.17;;
24259;SDS011;12384;48.112;18.418;2022-11-15T09:17:19;26.33;;;24.17;;
24259;SDS011;12384;48.112;18.418;2022-11-15T09:20:09;26.70;;;24.17;;
24259;SDS011;12384;48.112;18.418;2022-11-15T09:22:58;27.23;;;24.83;;
24259;SDS011;12384;48.112;18.418;2022-11-15T09:25:46;26.13;;;23.90;;
24259;SDS011;12384;48.112;18.418;2022-11-15T09:28:33;26.03;;;23.80;;
24259;SDS011;12384;48.112;18.418;2022-11-15T09:31:20;25.80;;;23.50;;
24259;SDS011;12384;48.112;18.418;2022-11-15T09:34:09;24.97;;;22.87;;
24259;SDS011;12384;48.112;18.418;2022-11-15T09:36:56;26.23;;;23.93;;
24259;SDS011;12384;48.112;18.418;2022-11-15T09:39:42;24.97;;;22.97;;
24259;SDS011;12384;48.112;18.418;2022-11-15T09:42:33;24.23;;;22.23;;
24259;SDS011;12384;48.112;18.418;2022-11-15T09:45:34;24.73;;;22.60;;
24259;SDS011;12384;48.112;18.418;2022-11-15T09:48:40;24.90;;;22.80;;
24259;SDS011;12384;48.112;18.418;2022-11-15T09:51:34;25.33;;;23.17;;
24259;SDS011;12384;48.112;18.418;2022-11-15T09:54:16;24.83;;;22.67;;
24259;SDS011;12384;48.112;18.418;2022-11-15T09:57:12;25.57;;;23.27;;
24259;SDS011;12384;48.112;18.418;2022-11-15T09:59:55;25.27;;;23.13;;
24259;SDS011;12384;48.112;18.418;2022-11-15T10:02:58;25.30;;;23.10;;
24259;SDS011;12384;48.112;18.418;2022-11-15T10:05:37;27.67;;;25.13;;
24259;SDS011;12384;48.112;18.418;2022-11-15T10:08:13;26.60;;;24.20;;
24259;SDS011;12384;48.112;18.418;2022-11-15T10:10:52;26.17;;;23.73;;
24259;SDS011;12384;48.112;18.418;2022-11-15T10:13:45;25.93;;;23.63;;
24259;SDS011;12384;48.112;18.418;2022-11-15T10:19:17;23.47;;;21.37;;
24259;SDS011;12384;48.112;18.418;2022-11-15T10:21:53;25.13;;;22.93;;
24259;SDS011;12384;48.112;18.418;2022-11-15T10:24:34;25.67;;;23.30;;
24259;SDS011;12384;48.112;18.418;2022-11-15T10:27:07;25.03;;;22.83;;
24259;SDS011;12384;48.112;18.418;2022-11-15T10:29:42;24.00;;;22.10;;
24259;SDS011;12384;48.112;18.418;2022-11-15T10:32:12;25.17;;;22.93;;
24259;SDS011;12384;48.112;18.418;2022-11-15T10:34:41;24.00;;;22.10;;
24259;SDS011;12384;48.112;18.418;2022-11-15T10:37:09;23.73;;;21.73;;
24259;SDS011;12384;48.112;18.418;2022-11-15T10:39:39;23.07;;;21.17;;
24259;SDS011;12384;48.112;18.418;2022-11-15T10:42:15;24.27;;;22.20;;
24259;SDS011;12384;48.112;18.418;2022-11-15T10:44:44;24.33;;;22.43;;
24259;SDS011;12384;48.112;18.418;2022-11-15T10:50:06;23.80;;;21.90;;
24259;SDS011;12384;48.112;18.418;2022-11-15T10:52:53;24.77;;;22.80;;
24259;SDS011;12384;48.112;18.418;2022-11-15T10:55:24;25.90;;;23.83;;
24259;SDS011;12384;48.112;18.418;2022-11-15T10:57:56;25.57;;;23.47;;
24259;SDS011;12384;48.112;18.418;2022-11-15T11:00:34;26.27;;;24.17;;
24259;SDS011;12384;48.112;18.418;2022-11-15T11:03:06;26.37;;;23.97;;
24259;SDS011;12384;48.112;18.418;2022-11-15T11:05:50;24.10;;;22.20;;
24259;SDS011;12384;48.112;18.418;2022-11-15T11:08:31;25.13;;;23.03;;
24259;SDS011;12384;48.112;18.418;2022-11-15T11:11:02;25.80;;;23.73;;
24259;SDS011;12384;48.112;18.418;2022-11-15T11:13:32;26.67;;;24.37;;
24259;SDS011;12384;48.112;18.418;2022-11-15T11:16:08;28.00;;;25.67;;
24259;SDS011;12384;48.112;18.418;2022-11-15T11:18:51;28.33;;;26.03;;
24259;SDS011;12384;48.112;18.418;2022-11-15T11:21:31;28.43;;;25.83;;
24259;SDS011;12384;48.112;18.418;2022-11-15T11:24:10;28.93;;;26.23;;
24259;SDS011;12384;48.112;18.418;2022-11-15T11:26:49;28.10;;;25.63;;
24259;SDS011;12384;48.112;18.418;2022-11-15T11:29:36;27.27;;;25.07;;
24259;SDS011;12384;48.112;18.418;2022-11-15T11:32:19;28.27;;;25.93;;
24259;SDS011;12384;48.112;18.418;2022-11-15T11:34:58;28.70;;;26.30;;
24259;SDS011;12384;48.112;18.418;2022-11-15T11:37:37;27.97;;;25.47;;
24259;SDS011;12384;48.112;18.418;2022-11-15T11:40:16;27.87;;;25.57;;
24259;SDS011;12384;48.112;18.418;2022-11-15T11:42:58;27.77;;;25.27;;
24259;SDS011;12384;48.112;18.418;2022-11-15T11:48:36;27.23;;;25.00;;
24259;SDS011;12384;48.112;18.418;2022-11-15T11:51:14;28.20;;;25.60;;
24259;SDS011;12384;48.112;18.418;2022-11-15T11:53:48;29.27;;;26.73;;
24259;SDS011;12384;48.112;18.418;2022-11-15T11:56:24;29.80;;;27.00;;
24259;SDS011;12384;48.112;18.418;2022-11-15T11:58:57;29.80;;;27.00;;
24259;SDS011;12384;48.112;18.418;2022-11-15T12:01:34;29.73;;;27.20;;
24259;SDS011;12384;48.112;18.418;2022-11-15T12:04:09;30.70;;;28.00;;
24259;SDS011;12384;48.112;18.418;2022-11-15T12:06:48;30.87;;;28.10;;
24259;SDS011;12384;48.112;18.418;2022-11-15T12:09:22;31.67;;;28.87;;
24259;SDS011;12384;48.112;18.418;2022-11-15T12:11:58;32.10;;;29.27;;
24259;SDS011;12384;48.112;18.418;2022-11-15T12:14:35;32.60;;;29.50;;
24259;SDS011;12384;48.112;18.418;2022-11-15T12:17:09;30.93;;;28.13;;
24259;SDS011;12384;48.112;18.418;2022-11-15T12:19:38;29.70;;;26.83;;
24259;SDS011;12384;48.112;18.418;2022-11-15T12:22:10;30.90;;;28.00;;
24259;SDS011;12384;48.112;18.418;2022-11-15T12:24:45;30.90;;;28.10;;
24259;SDS011;12384;48.112;18.418;2022-11-15T12:27:20;31.23;;;28.23;;
24259;SDS011;12384;48.112;18.418;2022-11-15T12:29:55;32.20;;;29.20;;
24259;SDS011;12384;48.112;18.418;2022-11-15T12:32:26;32.13;;;29.20;;
24259;SDS011;12384;48.112;18.418;2022-11-15T12:34:59;33.30;;;30.20;;
24259;SDS011;12384;48.112;18.418;2022-11-15T12:40:26;33.33;;;30.30;;
24259;SDS011;12384;48.112;18.418;2022-11-15T12:43:01;32.07;;;29.17;;
24259;SDS011;12384;48.112;18.418;2022-11-15T12:46:02;32.03;;;29.13;;
24259;SDS011;12384;48.112;18.418;2022-11-15T12:54:51;32.77;;;29.67;;
24259;SDS011;12384;48.112;18.418;2022-11-15T13:03:22;33.60;;;30.43;;
24259;SDS011;12384;48.112;18.418;2022-11-15T13:06:03;34.13;;;31.00;;
24259;SDS011;12384;48.112;18.418;2022-11-15T13:08:44;36.70;;;33.17;;
24259;SDS011;12384;48.112;18.418;2022-11-15T13:14:39;36.30;;;32.63;;
24259;SDS011;12384;48.112;18.418;2022-11-15T13:17:16;35.13;;;31.77;;
24259;SDS011;12384;48.112;18.418;2022-11-15T13:19:55;35.20;;;31.73;;
24259;SDS011;12384;48.112;18.418;2022-11-15T13:22:27;35.33;;;32.07;;
24259;SDS011;12384;48.112;18.418;2022-11-15T13:25:45;34.97;;;31.50;;
24259;SDS011;12384;48.112;18.418;2022-11-15T13:28:32;34.87;;;31.47;;
24259;SDS011;12384;48.112;18.418;2022-11-15T13:31:18;33.57;;;30.37;;
24259;SDS011;12384;48.112;18.418;2022-11-15T13:33:52;34.10;;;30.87;;
24259;SDS011;12384;48.112;18.418;2022-11-15T13:36:26;36.27;;;32.77;;
24259;SDS011;12384;48.112;18.418;2022-11-15T13:38:58;34.53;;;31.33;;
24259;SDS011;12384;48.112;18.418;2022-11-15T13:41:28;36.00;;;32.53;;
24259;SDS011;12384;48.112;18.418;2022-11-15T13:43:58;37.93;;;34.13;;
24259;SDS011;12384;48.112;18.418;2022-11-15T13:46:27;35.63;;;32.33;;
24259;SDS011;12384;48.112;18.418;2022-11-15T13:48:57;35.20;;;31.90;;
24259;SDS011;12384;48.112;18.418;2022-11-15T13:51:30;34.33;;;31.33;;
24259;SDS011;12384;48.112;18.418;2022-11-15T13:54:03;35.43;;;32.10;;
24259;SDS011;12384;48.112;18.418;2022-11-15T13:56:42;38.67;;;34.87;;
24259;SDS011;12384;48.112;18.418;2022-11-15T13:59:14;35.17;;;31.87;;
24259;SDS011;12384;48.112;18.418;2022-11-15T14:01:48;37.60;;;34.13;;
24259;SDS011;12384;48.112;18.418;2022-11-15T14:04:19;38.03;;;34.40;;
24259;SDS011;12384;48.112;18.418;2022-11-15T14:06:52;36.97;;;33.47;;
24259;SDS011;12384;48.112;18.418;2022-11-15T14:09:33;37.37;;;33.67;;
24259;SDS011;12384;48.112;18.418;2022-11-15T14:14:51;38.07;;;34.43;;
24259;SDS011;12384;48.112;18.418;2022-11-15T14:17:20;37.97;;;34.57;;
24259;SDS011;12384;48.112;18.418;2022-11-15T14:20:01;37.27;;;33.60;;
24259;SDS011;12384;48.112;18.418;2022-11-15T14:22:32;38.97;;;35.17;;
24259;SDS011;12384;48.112;18.418;2022-11-15T14:25:12;38.20;;;34.50;;
24259;SDS011;12384;48.112;18.418;2022-11-15T14:27:43;39.53;;;35.77;;
24259;SDS011;12384;48.112;18.418;2022-11-15T14:30:32;39.83;;;35.83;;
24259;SDS011;12384;48.112;18.418;2022-11-15T14:33:00;38.63;;;34.93;;
24259;SDS011;12384;48.112;18.418;2022-11-15T14:35:29;38.03;;;34.23;;
24259;SDS011;12384;48.112;18.418;2022-11-15T14:37:59;37.60;;;33.80;;
24259;SDS011;12384;48.112;18.418;2022-11-15T14:40:28;36.90;;;33.23;;
24259;SDS011;12384;48.112;18.418;2022-11-15T14:42:56;37.23;;;33.57;;
24259;SDS011;12384;48.112;18.418;2022-11-15T14:45:26;35.90;;;32.40;;
24259;SDS011;12384;48.112;18.418;2022-11-15T14:47:55;35.60;;;32.13;;
24259;SDS011;12384;48.112;18.418;2022-11-15T14:50:23;34.53;;;31.27;;
24259;SDS011;12384;48.112;18.418;2022-11-15T14:52:52;36.07;;;32.57;;
24259;SDS011;12384;48.112;18.418;2022-11-15T14:55:22;34.97;;;31.63;;
24259;SDS011;12384;48.112;18.418;2022-11-15T14:57:53;33.97;;;30.67;;
24259;SDS011;12384;48.112;18.418;2022-11-15T15:00:22;36.33;;;32.63;;
24259;SDS011;12384;48.112;18.418;2022-11-15T15:02:51;35.00;;;31.67;;
24259;SDS011;12384;48.112;18.418;2022-11-15T15:05:21;34.03;;;30.77;;
24259;SDS011;12384;48.112;18.418;2022-11-15T15:07:56;37.17;;;33.47;;
24259;SDS011;12384;48.112;18.418;2022-11-15T15:10:27;35.67;;;32.37;;
24259;SDS011;12384;48.112;18.418;2022-11-15T15:13:08;36.00;;;32.47;;
24259;SDS011;12384;48.112;18.418;2022-11-15T15:15:43;35.70;;;32.20;;
24259;SDS011;12384;48.112;18.418;2022-11-15T15:18:11;35.47;;;31.93;;
24259;SDS011;12384;48.112;18.418;2022-11-15T15:20:40;37.53;;;33.80;;
24259;SDS011;12384;48.112;18.418;2022-11-15T15:23:14;35.43;;;32.10;;
24259;SDS011;12384;48.112;18.418;2022-11-15T15:25:46;37.83;;;33.60;;
24259;SDS011;12384;48.112;18.418;2022-11-15T15:28:15;42.27;;;36.47;;
24259;SDS011;12384;48.112;18.418;2022-11-15T15:30:44;42.37;;;36.63;;
24259;SDS011;12384;48.112;18.418;2022-11-15T15:33:12;39.33;;;35.13;;
24259;SDS011;12384;48.112;18.418;2022-11-15T15:35:40;44.97;;;38.00;;
24259;SDS011;12384;48.112;18.418;2022-11-15T15:38:10;41.00;;;36.50;;
24259;SDS011;12384;48.112;18.418;2022-11-15T15:40:39;39.00;;;34.90;;
24259;SDS011;12384;48.112;18.418;2022-11-15T15:43:09;37.87;;;34.00;;
24259;SDS011;12384;48.112;18.418;2022-11-15T15:45:37;37.07;;;33.37;;
24259;SDS011;12384;48.112;18.418;2022-11-15T15:48:09;36.27;;;32.53;;
24259;SDS011;12384;48.112;18.418;2022-11-15T15:50:39;39.00;;;35.00;;
24259;SDS011;12384;48.112;18.418;2022-11-15T15:53:09;39.07;;;34.97;;
24259;SDS011;12384;48.112;18.418;2022-11-15T15:55:38;39.00;;;34.97;;
24259;SDS011;12384;48.112;18.418;2022-11-15T15:58:08;40.17;;;35.93;;
24259;SDS011;12384;48.112;18.418;2022-11-15T16:00:36;35.53;;;31.90;;
24259;SDS011;12384;48.112;18.418;2022-11-15T16:03:05;33.87;;;30.53;;
24259;SDS011;12384;48.112;18.418;2022-11-15T16:05:33;34.20;;;30.87;;
24259;SDS011;12384;48.112;18.418;2022-11-15T16:08:02;35.93;;;32.23;;
24259;SDS011;12384;48.112;18.418;2022-11-15T16:10:31;36.67;;;32.87;;
24259;SDS011;12384;48.112;18.418;2022-11-15T16:13:01;36.00;;;32.47;;